sensor_id;sensor_type;location;lat;lon;timestamp;P1;durP1;ratioP1;P2;durP2;ratioP2
22571;SDS011;11452;53.368;14.658;2022-08-03T00:01:15;2.10;;;1.63;;
22571;SDS011;11452;53.368;14.658;2022-08-03T00:06:20;2.47;;;1.60;;
22571;SDS011;11452;53.368;14.658;2022-08-03T00:11:26;1.73;;;1.60;;
22571;SDS011;11452;53.368;14.658;2022-08-03T00:16:32;1.80;;;1.60;;
22571;SDS011;11452;53.368;14.658;2022-08-03T00:21:38;3.60;;;1.83;;
22571;SDS011;11452;53.368;14.658;2022-08-03T00:26:44;2.07;;;1.60;;
22571;SDS011;11452;53.368;14.658;2022-08-03T00:31:50;2.70;;;1.80;;
22571;SDS011;11452;53.368;14.658;2022-08-03T00:36:57;2.40;;;1.70;;
22571;SDS011;11452;53.368;14.658;2022-08-03T00:42:03;2.40;;;1.60;;
22571;SDS011;11452;53.368;14.658;2022-08-03T00:47:09;2.63;;;1.63;;
22571;SDS011;11452;53.368;14.658;2022-08-03T00:52:15;3.57;;;2.00;;
22571;SDS011;11452;53.368;14.658;2022-08-03T00:57:21;3.10;;;1.70;;
22571;SDS011;11452;53.368;14.658;2022-08-03T01:02:27;2.50;;;1.80;;
22571;SDS011;11452;53.368;14.658;2022-08-03T01:23:58;3.07;;;1.90;;
22571;SDS011;11452;53.368;14.658;2022-08-03T01:34:38;2.07;;;1.73;;
22571;SDS011;11452;53.368;14.658;2022-08-03T01:39:44;3.63;;;2.00;;
22571;SDS011;11452;53.368;14.658;2022-08-03T01:44:50;2.20;;;2.00;;
22571;SDS011;11452;53.368;14.658;2022-08-03T01:49:58;1.80;;;1.50;;
22571;SDS011;11452;53.368;14.658;2022-08-03T01:55:06;2.03;;;1.50;;
22571;SDS011;11452;53.368;14.658;2022-08-03T02:00:13;2.83;;;1.50;;
22571;SDS011;11452;53.368;14.658;2022-08-03T02:05:21;1.93;;;1.53;;
22571;SDS011;11452;53.368;14.658;2022-08-03T02:10:29;2.87;;;1.70;;
22571;SDS011;11452;53.368;14.658;2022-08-03T02:15:38;2.73;;;1.57;;
22571;SDS011;11452;53.368;14.658;2022-08-03T02:20:45;2.03;;;1.30;;
22571;SDS011;11452;53.368;14.658;2022-08-03T02:25:57;2.40;;;1.60;;
22571;SDS011;11452;53.368;14.658;2022-08-03T02:31:03;2.07;;;1.60;;
22571;SDS011;11452;53.368;14.658;2022-08-03T02:36:11;2.03;;;1.87;;
22571;SDS011;11452;53.368;14.658;2022-08-03T02:41:20;3.47;;;1.80;;
22571;SDS011;11452;53.368;14.658;2022-08-03T02:46:28;2.40;;;2.20;;
22571;SDS011;11452;53.368;14.658;2022-08-03T02:51:36;2.33;;;2.13;;
22571;SDS011;11452;53.368;14.658;2022-08-03T02:56:44;2.63;;;1.97;;
22571;SDS011;11452;53.368;14.658;2022-08-03T03:01:52;3.13;;;1.90;;
22571;SDS011;11452;53.368;14.658;2022-08-03T03:06:59;4.13;;;2.20;;
22571;SDS011;11452;53.368;14.658;2022-08-03T03:12:07;3.43;;;1.63;;
22571;SDS011;11452;53.368;14.658;2022-08-03T03:17:16;2.53;;;1.70;;
22571;SDS011;11452;53.368;14.658;2022-08-03T03:22:23;4.20;;;2.10;;
22571;SDS011;11452;53.368;14.658;2022-08-03T03:27:32;5.93;;;2.10;;
22571;SDS011;11452;53.368;14.658;2022-08-03T03:32:38;4.70;;;2.00;;
22571;SDS011;11452;53.368;14.658;2022-08-03T03:37:43;4.63;;;2.03;;
22571;SDS011;11452;53.368;14.658;2022-08-03T03:42:49;4.10;;;2.13;;
22571;SDS011;11452;53.368;14.658;2022-08-03T03:47:55;6.60;;;2.00;;
22571;SDS011;11452;53.368;14.658;2022-08-03T03:53:03;3.30;;;2.10;;
22571;SDS011;11452;53.368;14.658;2022-08-03T03:58:10;3.03;;;1.97;;
22571;SDS011;11452;53.368;14.658;2022-08-03T04:03:16;4.40;;;2.00;;
22571;SDS011;11452;53.368;14.658;2022-08-03T04:08:21;3.07;;;2.23;;
22571;SDS011;11452;53.368;14.658;2022-08-03T04:14:04;3.70;;;2.00;;
22571;SDS011;11452;53.368;14.658;2022-08-03T04:19:23;2.87;;;2.07;;
22571;SDS011;11452;53.368;14.658;2022-08-03T04:24:31;5.00;;;2.70;;
22571;SDS011;11452;53.368;14.658;2022-08-03T04:29:40;3.63;;;2.33;;
22571;SDS011;11452;53.368;14.658;2022-08-03T04:34:50;7.83;;;2.40;;
22571;SDS011;11452;53.368;14.658;2022-08-03T04:39:57;3.47;;;3.17;;
22571;SDS011;11452;53.368;14.658;2022-08-03T04:45:05;3.47;;;2.87;;
22571;SDS011;11452;53.368;14.658;2022-08-03T04:50:14;4.80;;;2.73;;
22571;SDS011;11452;53.368;14.658;2022-08-03T04:55:33;4.30;;;2.90;;
22571;SDS011;11452;53.368;14.658;2022-08-03T05:00:34;4.77;;;3.13;;
22571;SDS011;11452;53.368;14.658;2022-08-03T05:05:40;6.67;;;3.10;;
22571;SDS011;11452;53.368;14.658;2022-08-03T05:10:47;4.37;;;2.80;;
22571;SDS011;11452;53.368;14.658;2022-08-03T05:15:53;4.97;;;3.30;;
22571;SDS011;11452;53.368;14.658;2022-08-03T05:20:59;8.37;;;3.70;;
22571;SDS011;11452;53.368;14.658;2022-08-03T05:26:04;5.00;;;2.90;;
22571;SDS011;11452;53.368;14.658;2022-08-03T05:31:10;5.87;;;3.53;;
22571;SDS011;11452;53.368;14.658;2022-08-03T05:36:16;4.97;;;3.07;;
22571;SDS011;11452;53.368;14.658;2022-08-03T05:41:21;6.87;;;4.10;;
22571;SDS011;11452;53.368;14.658;2022-08-03T05:46:29;7.63;;;3.43;;
22571;SDS011;11452;53.368;14.658;2022-08-03T05:51:34;6.87;;;3.60;;
22571;SDS011;11452;53.368;14.658;2022-08-03T05:56:40;6.47;;;3.40;;
22571;SDS011;11452;53.368;14.658;2022-08-03T06:01:46;5.73;;;3.13;;
22571;SDS011;11452;53.368;14.658;2022-08-03T06:06:52;6.20;;;3.77;;
22571;SDS011;11452;53.368;14.658;2022-08-03T06:11:57;6.83;;;3.20;;
22571;SDS011;11452;53.368;14.658;2022-08-03T06:17:03;4.30;;;3.03;;
22571;SDS011;11452;53.368;14.658;2022-08-03T06:22:08;5.07;;;3.00;;
22571;SDS011;11452;53.368;14.658;2022-08-03T06:27:16;4.77;;;3.07;;
22571;SDS011;11452;53.368;14.658;2022-08-03T06:32:23;2.77;;;2.53;;
22571;SDS011;11452;53.368;14.658;2022-08-03T06:37:29;2.50;;;2.30;;
22571;SDS011;11452;53.368;14.658;2022-08-03T06:42:35;3.13;;;2.87;;
22571;SDS011;11452;53.368;14.658;2022-08-03T06:47:40;4.30;;;2.70;;
22571;SDS011;11452;53.368;14.658;2022-08-03T06:52:47;2.57;;;2.37;;
22571;SDS011;11452;53.368;14.658;2022-08-03T06:57:52;3.23;;;2.83;;
22571;SDS011;11452;53.368;14.658;2022-08-03T07:03:00;3.13;;;2.30;;
22571;SDS011;11452;53.368;14.658;2022-08-03T07:08:05;2.70;;;2.50;;
22571;SDS011;11452;53.368;14.658;2022-08-03T07:13:11;3.53;;;3.10;;
22571;SDS011;11452;53.368;14.658;2022-08-03T07:18:16;3.00;;;2.80;;
22571;SDS011;11452;53.368;14.658;2022-08-03T07:23:24;3.43;;;2.80;;
22571;SDS011;11452;53.368;14.658;2022-08-03T07:28:30;3.70;;;3.00;;
22571;SDS011;11452;53.368;14.658;2022-08-03T07:33:35;3.60;;;2.50;;
22571;SDS011;11452;53.368;14.658;2022-08-03T07:38:44;4.37;;;3.10;;
22571;SDS011;11452;53.368;14.658;2022-08-03T07:43:50;3.97;;;3.00;;
22571;SDS011;11452;53.368;14.658;2022-08-03T07:48:56;4.40;;;3.30;;
22571;SDS011;11452;53.368;14.658;2022-08-03T07:54:02;4.70;;;3.20;;
22571;SDS011;11452;53.368;14.658;2022-08-03T07:59:08;4.80;;;3.27;;
22571;SDS011;11452;53.368;14.658;2022-08-03T08:04:14;3.20;;;3.00;;
22571;SDS011;11452;53.368;14.658;2022-08-03T08:09:19;2.90;;;2.60;;
22571;SDS011;11452;53.368;14.658;2022-08-03T08:14:26;3.60;;;3.30;;
22571;SDS011;11452;53.368;14.658;2022-08-03T08:19:32;3.37;;;3.17;;
22571;SDS011;11452;53.368;14.658;2022-08-03T08:24:39;2.80;;;2.60;;
22571;SDS011;11452;53.368;14.658;2022-08-03T08:29:46;3.17;;;2.63;;
22571;SDS011;11452;53.368;14.658;2022-08-03T08:34:54;4.50;;;2.87;;
22571;SDS011;11452;53.368;14.658;2022-08-03T08:40:00;4.20;;;2.50;;
22571;SDS011;11452;53.368;14.658;2022-08-03T08:45:06;2.50;;;2.20;;
22571;SDS011;11452;53.368;14.658;2022-08-03T08:50:14;2.60;;;2.40;;
22571;SDS011;11452;53.368;14.658;2022-08-03T08:55:26;2.80;;;2.30;;
22571;SDS011;11452;53.368;14.658;2022-08-03T09:00:34;2.80;;;2.53;;
22571;SDS011;11452;53.368;14.658;2022-08-03T09:05:42;5.27;;;3.30;;
22571;SDS011;11452;53.368;14.658;2022-08-03T09:10:50;2.67;;;2.50;;
22571;SDS011;11452;53.368;14.658;2022-08-03T09:16:10;3.00;;;2.50;;
22571;SDS011;11452;53.368;14.658;2022-08-03T09:21:23;3.23;;;2.97;;
22571;SDS011;11452;53.368;14.658;2022-08-03T09:26:35;29.73;;;5.03;;
22571;SDS011;11452;53.368;14.658;2022-08-03T09:31:42;2.77;;;2.57;;
22571;SDS011;11452;53.368;14.658;2022-08-03T09:36:50;3.73;;;2.77;;
22571;SDS011;11452;53.368;14.658;2022-08-03T09:42:08;2.90;;;2.70;;
22571;SDS011;11452;53.368;14.658;2022-08-03T09:47:13;3.20;;;2.67;;
22571;SDS011;11452;53.368;14.658;2022-08-03T09:52:36;3.30;;;2.40;;
22571;SDS011;11452;53.368;14.658;2022-08-03T09:57:44;2.33;;;2.23;;
22571;SDS011;11452;53.368;14.658;2022-08-03T10:02:50;2.60;;;2.40;;
22571;SDS011;11452;53.368;14.658;2022-08-03T10:07:59;4.73;;;2.90;;
22571;SDS011;11452;53.368;14.658;2022-08-03T10:13:04;2.40;;;2.13;;
22571;SDS011;11452;53.368;14.658;2022-08-03T10:18:10;4.40;;;2.62;;
22571;SDS011;11452;53.368;14.658;2022-08-03T10:23:16;2.23;;;2.13;;
22571;SDS011;11452;53.368;14.658;2022-08-03T10:28:23;2.50;;;2.30;;
22571;SDS011;11452;53.368;14.658;2022-08-03T10:33:31;2.40;;;2.20;;
22571;SDS011;11452;53.368;14.658;2022-08-03T10:38:47;2.57;;;2.37;;
22571;SDS011;11452;53.368;14.658;2022-08-03T10:44:08;2.20;;;2.10;;
22571;SDS011;11452;53.368;14.658;2022-08-03T10:49:17;3.12;;;2.47;;
22571;SDS011;11452;53.368;14.658;2022-08-03T11:10:30;2.92;;;2.25;;
22571;SDS011;11452;53.368;14.658;2022-08-03T11:15:36;2.70;;;2.50;;
22571;SDS011;11452;53.368;14.658;2022-08-03T11:20:46;3.12;;;2.20;;
22571;SDS011;11452;53.368;14.658;2022-08-03T11:26:15;2.62;;;2.35;;
22571;SDS011;11452;53.368;14.658;2022-08-03T11:47:34;7.53;;;3.72;;
22571;SDS011;11452;53.368;14.658;2022-08-03T11:52:41;3.00;;;2.72;;
22571;SDS011;11452;53.368;14.658;2022-08-03T11:57:47;3.95;;;2.47;;
22571;SDS011;11452;53.368;14.658;2022-08-03T12:03:02;2.50;;;2.30;;
22571;SDS011;11452;53.368;14.658;2022-08-03T12:08:10;2.10;;;2.00;;
22571;SDS011;11452;53.368;14.658;2022-08-03T12:13:18;2.50;;;2.30;;
22571;SDS011;11452;53.368;14.658;2022-08-03T12:18:27;2.60;;;2.35;;
22571;SDS011;11452;53.368;14.658;2022-08-03T12:23:33;2.45;;;2.20;;
22571;SDS011;11452;53.368;14.658;2022-08-03T12:28:47;2.08;;;1.98;;
22571;SDS011;11452;53.368;14.658;2022-08-03T12:34:03;2.83;;;2.47;;
22571;SDS011;11452;53.368;14.658;2022-08-03T12:39:07;2.65;;;2.33;;
22571;SDS011;11452;53.368;14.658;2022-08-03T12:44:14;2.33;;;2.12;;
22571;SDS011;11452;53.368;14.658;2022-08-03T12:49:20;2.70;;;2.50;;
22571;SDS011;11452;53.368;14.658;2022-08-03T12:54:27;1.95;;;1.85;;
22571;SDS011;11452;53.368;14.658;2022-08-03T12:59:41;2.30;;;2.20;;
22571;SDS011;11452;53.368;14.658;2022-08-03T13:04:53;4.20;;;2.10;;
22571;SDS011;11452;53.368;14.658;2022-08-03T13:09:59;2.90;;;2.00;;
22571;SDS011;11452;53.368;14.658;2022-08-03T13:15:07;2.45;;;2.25;;
22571;SDS011;11452;53.368;14.658;2022-08-03T13:20:13;3.35;;;2.40;;
22571;SDS011;11452;53.368;14.658;2022-08-03T13:25:18;4.00;;;2.40;;
22571;SDS011;11452;53.368;14.658;2022-08-03T13:30:24;2.67;;;2.42;;
22571;SDS011;11452;53.368;14.658;2022-08-03T13:35:31;2.50;;;2.40;;
22571;SDS011;11452;53.368;14.658;2022-08-03T13:40:37;2.70;;;2.47;;
22571;SDS011;11452;53.368;14.658;2022-08-03T13:45:44;2.60;;;2.40;;
22571;SDS011;11452;53.368;14.658;2022-08-03T13:50:51;2.55;;;2.45;;
22571;SDS011;11452;53.368;14.658;2022-08-03T13:55:57;3.08;;;2.50;;
22571;SDS011;11452;53.368;14.658;2022-08-03T14:01:03;2.67;;;2.47;;
22571;SDS011;11452;53.368;14.658;2022-08-03T14:06:09;2.60;;;2.40;;
22571;SDS011;11452;53.368;14.658;2022-08-03T14:11:15;5.92;;;2.62;;
22571;SDS011;11452;53.368;14.658;2022-08-03T14:16:21;2.47;;;2.27;;
22571;SDS011;11452;53.368;14.658;2022-08-03T14:21:27;2.87;;;2.30;;
22571;SDS011;11452;53.368;14.658;2022-08-03T14:26:32;2.67;;;2.50;;
22571;SDS011;11452;53.368;14.658;2022-08-03T14:31:38;2.72;;;2.52;;
22571;SDS011;11452;53.368;14.658;2022-08-03T14:36:46;2.52;;;2.40;;
22571;SDS011;11452;53.368;14.658;2022-08-03T14:41:51;3.08;;;2.80;;
22571;SDS011;11452;53.368;14.658;2022-08-03T14:46:57;2.52;;;2.25;;
22571;SDS011;11452;53.368;14.658;2022-08-03T14:52:03;3.58;;;2.27;;
22571;SDS011;11452;53.368;14.658;2022-08-03T14:57:09;2.50;;;2.30;;
22571;SDS011;11452;53.368;14.658;2022-08-03T15:02:15;4.62;;;2.83;;
22571;SDS011;11452;53.368;14.658;2022-08-03T15:07:22;2.58;;;2.37;;
22571;SDS011;11452;53.368;14.658;2022-08-03T15:12:28;2.42;;;2.33;;
22571;SDS011;11452;53.368;14.658;2022-08-03T15:17:33;3.83;;;2.40;;
22571;SDS011;11452;53.368;14.658;2022-08-03T15:22:42;3.52;;;2.55;;
22571;SDS011;11452;53.368;14.658;2022-08-03T15:27:51;2.92;;;2.33;;
22571;SDS011;11452;53.368;14.658;2022-08-03T15:32:58;2.72;;;2.35;;
22571;SDS011;11452;53.368;14.658;2022-08-03T15:38:04;2.70;;;2.50;;
22571;SDS011;11452;53.368;14.658;2022-08-03T15:43:12;2.80;;;2.60;;
22571;SDS011;11452;53.368;14.658;2022-08-03T15:48:17;2.95;;;2.60;;
22571;SDS011;11452;53.368;14.658;2022-08-03T15:53:26;2.60;;;2.40;;
22571;SDS011;11452;53.368;14.658;2022-08-03T15:58:32;2.60;;;2.50;;
22571;SDS011;11452;53.368;14.658;2022-08-03T16:03:40;2.60;;;2.40;;
22571;SDS011;11452;53.368;14.658;2022-08-03T16:08:46;2.50;;;2.25;;
22571;SDS011;11452;53.368;14.658;2022-08-03T16:13:54;3.05;;;2.80;;
22571;SDS011;11452;53.368;14.658;2022-08-03T16:19:01;3.08;;;2.77;;
22571;SDS011;11452;53.368;14.658;2022-08-03T16:24:08;3.27;;;2.47;;
22571;SDS011;11452;53.368;14.658;2022-08-03T16:29:15;2.62;;;2.42;;
22571;SDS011;11452;53.368;14.658;2022-08-03T16:34:22;2.50;;;2.40;;
22571;SDS011;11452;53.368;14.658;2022-08-03T16:39:31;2.45;;;2.35;;
22571;SDS011;11452;53.368;14.658;2022-08-03T16:44:42;2.50;;;2.20;;
22571;SDS011;11452;53.368;14.658;2022-08-03T16:49:50;3.40;;;2.72;;
22571;SDS011;11452;53.368;14.658;2022-08-03T16:54:58;2.58;;;2.47;;
22571;SDS011;11452;53.368;14.658;2022-08-03T17:00:06;3.50;;;3.20;;
22571;SDS011;11452;53.368;14.658;2022-08-03T17:05:13;3.42;;;2.60;;
22571;SDS011;11452;53.368;14.658;2022-08-03T17:10:19;3.25;;;2.90;;
22571;SDS011;11452;53.368;14.658;2022-08-03T17:15:27;3.20;;;2.90;;
22571;SDS011;11452;53.368;14.658;2022-08-03T17:20:36;4.08;;;3.05;;
22571;SDS011;11452;53.368;14.658;2022-08-03T17:25:45;3.37;;;3.08;;
22571;SDS011;11452;53.368;14.658;2022-08-03T17:30:52;5.53;;;2.83;;
22571;SDS011;11452;53.368;14.658;2022-08-03T17:36:19;3.05;;;2.85;;
22571;SDS011;11452;53.368;14.658;2022-08-03T17:41:36;3.10;;;2.90;;
22571;SDS011;11452;53.368;14.658;2022-08-03T17:46:43;3.00;;;2.80;;
22571;SDS011;11452;53.368;14.658;2022-08-03T17:51:55;3.25;;;2.95;;
22571;SDS011;11452;53.368;14.658;2022-08-03T18:08:23;3.10;;;2.90;;
22571;SDS011;11452;53.368;14.658;2022-08-03T18:13:45;3.98;;;3.12;;
22571;SDS011;11452;53.368;14.658;2022-08-03T18:18:59;4.33;;;3.17;;
22571;SDS011;11452;53.368;14.658;2022-08-03T18:24:08;2.80;;;2.60;;
22571;SDS011;11452;53.368;14.658;2022-08-03T18:29:15;3.17;;;2.98;;
22571;SDS011;11452;53.368;14.658;2022-08-03T18:34:23;2.87;;;2.67;;
22571;SDS011;11452;53.368;14.658;2022-08-03T18:39:31;2.95;;;2.70;;
22571;SDS011;11452;53.368;14.658;2022-08-03T18:44:44;3.45;;;2.75;;
22571;SDS011;11452;53.368;14.658;2022-08-03T18:50:00;2.90;;;2.70;;
22571;SDS011;11452;53.368;14.658;2022-08-03T18:55:25;3.33;;;3.02;;
22571;SDS011;11452;53.368;14.658;2022-08-03T19:00:33;3.00;;;2.80;;
22571;SDS011;11452;53.368;14.658;2022-08-03T19:05:50;4.30;;;2.90;;
22571;SDS011;11452;53.368;14.658;2022-08-03T19:11:02;3.08;;;2.58;;
22571;SDS011;11452;53.368;14.658;2022-08-03T19:16:13;3.42;;;2.75;;
22571;SDS011;11452;53.368;14.658;2022-08-03T19:21:21;3.20;;;3.00;;
22571;SDS011;11452;53.368;14.658;2022-08-03T19:26:27;4.15;;;2.92;;
22571;SDS011;11452;53.368;14.658;2022-08-03T19:31:37;3.60;;;2.97;;
22571;SDS011;11452;53.368;14.658;2022-08-03T19:36:45;3.93;;;2.70;;
22571;SDS011;11452;53.368;14.658;2022-08-03T19:41:51;2.87;;;2.67;;
22571;SDS011;11452;53.368;14.658;2022-08-03T19:47:06;3.03;;;2.83;;
22571;SDS011;11452;53.368;14.658;2022-08-03T19:52:17;3.85;;;2.95;;
22571;SDS011;11452;53.368;14.658;2022-08-03T19:57:27;3.27;;;2.60;;
22571;SDS011;11452;53.368;14.658;2022-08-03T20:02:34;3.47;;;2.73;;
22571;SDS011;11452;53.368;14.658;2022-08-03T20:07:40;4.07;;;3.10;;
22571;SDS011;11452;53.368;14.658;2022-08-03T20:12:47;2.80;;;2.30;;
22571;SDS011;11452;53.368;14.658;2022-08-03T20:17:53;2.70;;;2.40;;
22571;SDS011;11452;53.368;14.658;2022-08-03T20:23:14;3.00;;;2.43;;
22571;SDS011;11452;53.368;14.658;2022-08-03T20:28:23;5.30;;;2.80;;
22571;SDS011;11452;53.368;14.658;2022-08-03T20:33:32;3.77;;;2.67;;
22571;SDS011;11452;53.368;14.658;2022-08-03T20:38:39;6.50;;;2.67;;
22571;SDS011;11452;53.368;14.658;2022-08-03T20:43:46;3.00;;;2.40;;
22571;SDS011;11452;53.368;14.658;2022-08-03T20:48:53;6.77;;;3.00;;
22571;SDS011;11452;53.368;14.658;2022-08-03T20:54:02;3.33;;;3.03;;
22571;SDS011;11452;53.368;14.658;2022-08-03T20:59:11;3.30;;;3.00;;
22571;SDS011;11452;53.368;14.658;2022-08-03T21:04:17;4.00;;;2.70;;
22571;SDS011;11452;53.368;14.658;2022-08-03T21:09:24;2.70;;;2.50;;
22571;SDS011;11452;53.368;14.658;2022-08-03T21:14:37;3.57;;;2.70;;
22571;SDS011;11452;53.368;14.658;2022-08-03T21:19:52;3.30;;;2.80;;
22571;SDS011;11452;53.368;14.658;2022-08-03T21:25:01;2.67;;;2.50;;
22571;SDS011;11452;53.368;14.658;2022-08-03T21:30:09;3.10;;;2.53;;
22571;SDS011;11452;53.368;14.658;2022-08-03T21:35:15;3.50;;;3.20;;
22571;SDS011;11452;53.368;14.658;2022-08-03T21:40:21;3.10;;;2.90;;
22571;SDS011;11452;53.368;14.658;2022-08-03T21:45:27;3.20;;;2.67;;
22571;SDS011;11452;53.368;14.658;2022-08-03T21:50:32;2.60;;;2.50;;
22571;SDS011;11452;53.368;14.658;2022-08-03T21:55:41;2.63;;;2.50;;
22571;SDS011;11452;53.368;14.658;2022-08-03T22:00:49;3.20;;;2.90;;
22571;SDS011;11452;53.368;14.658;2022-08-03T22:05:55;2.93;;;2.67;;
22571;SDS011;11452;53.368;14.658;2022-08-03T22:11:03;2.90;;;2.70;;
22571;SDS011;11452;53.368;14.658;2022-08-03T22:16:09;2.80;;;2.60;;
22571;SDS011;11452;53.368;14.658;2022-08-03T22:21:15;2.50;;;2.30;;
22571;SDS011;11452;53.368;14.658;2022-08-03T22:26:24;2.77;;;2.50;;
22571;SDS011;11452;53.368;14.658;2022-08-03T22:31:33;2.63;;;2.43;;
22571;SDS011;11452;53.368;14.658;2022-08-03T22:36:43;3.53;;;2.80;;
22571;SDS011;11452;53.368;14.658;2022-08-03T22:41:48;3.13;;;2.83;;
22571;SDS011;11452;53.368;14.658;2022-08-03T22:46:54;3.20;;;2.67;;
22571;SDS011;11452;53.368;14.658;2022-08-03T22:52:01;4.13;;;2.60;;
22571;SDS011;11452;53.368;14.658;2022-08-03T22:57:07;2.60;;;2.40;;
22571;SDS011;11452;53.368;14.658;2022-08-03T23:02:14;2.97;;;2.53;;
22571;SDS011;11452;53.368;14.658;2022-08-03T23:07:29;3.17;;;2.97;;
22571;SDS011;11452;53.368;14.658;2022-08-03T23:12:35;3.50;;;3.20;;
22571;SDS011;11452;53.368;14.658;2022-08-03T23:17:47;3.70;;;3.40;;
22571;SDS011;11452;53.368;14.658;2022-08-03T23:22:58;3.87;;;3.57;;
22571;SDS011;11452;53.368;14.658;2022-08-03T23:28:08;3.83;;;3.33;;
22571;SDS011;11452;53.368;14.658;2022-08-03T23:33:15;4.60;;;3.50;;
22571;SDS011;11452;53.368;14.658;2022-08-03T23:38:27;3.83;;;3.53;;
22571;SDS011;11452;53.368;14.658;2022-08-03T23:43:31;3.53;;;3.20;;
22571;SDS011;11452;53.368;14.658;2022-08-03T23:48:41;3.77;;;3.43;;
22571;SDS011;11452;53.368;14.658;2022-08-03T23:53:53;3.60;;;3.40;;
22571;SDS011;11452;53.368;14.658;2022-08-03T23:59:17;4.83;;;3.50;;
